Ora, Indiana
Current Conditions -  °F | °C
As of 7:55 AM on Thursday 23 Oct 2014 (Local Time) from KOXI Reporting Station
Overcast Overcast  
Wind Chill: 34°   Ceiling: 700
Heat Index: 34°   Visibility: 1mi
Dew Point: 33°   Wind: 0mph
Humidity: 95%   Direction: NA
Pressure: 30.23"   Gusts: NA
Location:  41.17°N, 86.55°W
Report Text: KOXI 231255Z AUTO 00000KT 1SM VV007 01/00 A3023 RMK AO1 T00100003
Loading
Personal Weather Stations






























Interactive Weather Map
Tropical Storm Tracking
New forecast layout! Learn more

10-Day Weather Forecast

Advertisements
Track Severe Weather on mobile